SWR8 LSZH-KORD
Flight info
| Callsign | SWR8 |
|---|---|
| Flight time | N/A |
| Altitude | 34000 |
| Route | VEBIT T10 TORPA DCT REKLA DCT RLP DCT ROTSI DCT KOTUN DCT AMAXA DCT VESAN DCT RATUK DCT SOVAT L613 SANDY DCT OKSAW DCT TEWXI DCT VATRY DCT OSGAR DCT RESNO/M082F360 DCT 56N020W 57N030W 57N040W 56N050W DCT JANJO/N0470F380 N714B YBC DCT YUC DCT KAPUX DCT ODAXY WYNDE3 |
| Aircraft | B77W/H-SDE1E2E3FGHIJ2J3J4J5M1RWXY/LB1D1 |
Departure
| Time | 2026-04-26 18:47 |
|---|---|
| Airport | Zürich Airport (LSZH) |
Arrival
| Time | N/A |
|---|---|
| Airport | Chicago O'Hare International Airport (KORD) |
| Time | Latitude | Longitude | Altitude | Speed | Heading |
|---|---|---|---|---|---|
| 2026-04-26 18:03 | 47.46158 | 8.55781 | 1402 ft | 0 kts | 185° |
| 2026-04-26 18:28 | 47.46173 | 8.55783 | 1412 ft | 4 kts | 186° |
| 2026-04-26 18:29 | 47.46195 | 8.55786 | 1410 ft | 4 kts | 191° |
| 2026-04-26 18:29 | 47.46219 | 8.55800 | 1404 ft | 4 kts | 224° |
| 2026-04-26 18:29 | 47.46231 | 8.55831 | 1402 ft | 4 kts | 265° |
| 2026-04-26 18:29 | 47.46230 | 8.55868 | 1402 ft | 4 kts | 276° |
| 2026-04-26 18:30 | 47.46228 | 8.55902 | 1409 ft | 1 kts | 276° |
| 2026-04-26 18:35 | 47.46228 | 8.55895 | 1402 ft | 2 kts | 276° |
| 2026-04-26 18:35 | 47.46230 | 8.55866 | 1404 ft | 4 kts | 276° |
| 2026-04-26 18:35 | 47.46233 | 8.55821 | 1402 ft | 5 kts | 276° |
| 2026-04-26 18:35 | 47.46237 | 8.55767 | 1408 ft | 6 kts | 276° |
| 2026-04-26 18:36 | 47.46242 | 8.55706 | 1408 ft | 6 kts | 276° |
| 2026-04-26 18:36 | 47.46247 | 8.55638 | 1410 ft | 7 kts | 276° |
| 2026-04-26 18:36 | 47.46252 | 8.55564 | 1410 ft | 8 kts | 276° |
| 2026-04-26 18:36 | 47.46258 | 8.55482 | 1403 ft | 8 kts | 276° |
| 2026-04-26 18:37 | 47.46264 | 8.55393 | 1411 ft | 9 kts | 275° |
| 2026-04-26 18:37 | 47.46270 | 8.55298 | 1402 ft | 10 kts | 275° |
| 2026-04-26 18:37 | 47.46276 | 8.55198 | 1407 ft | 10 kts | 275° |
| 2026-04-26 18:37 | 47.46283 | 8.55089 | 1402 ft | 11 kts | 275° |
| 2026-04-26 18:38 | 47.46290 | 8.54971 | 1410 ft | 12 kts | 275° |
| 2026-04-26 18:38 | 47.46298 | 8.54853 | 1402 ft | 12 kts | 275° |
| 2026-04-26 18:38 | 47.46324 | 8.54746 | 1411 ft | 12 kts | 311° |
| 2026-04-26 18:38 | 47.46392 | 8.54685 | 1401 ft | 12 kts | 334° |
| 2026-04-26 18:39 | 47.46465 | 8.54633 | 1401 ft | 12 kts | 334° |
| 2026-04-26 18:39 | 47.46538 | 8.54584 | 1409 ft | 12 kts | 335° |
| 2026-04-26 18:39 | 47.46611 | 8.54535 | 1411 ft | 12 kts | 335° |
| 2026-04-26 18:39 | 47.46684 | 8.54485 | 1403 ft | 12 kts | 335° |
| 2026-04-26 18:40 | 47.46757 | 8.54437 | 1410 ft | 12 kts | 338° |
| 2026-04-26 18:40 | 47.46832 | 8.54394 | 1409 ft | 12 kts | 339° |
| 2026-04-26 18:40 | 47.46906 | 8.54347 | 1410 ft | 12 kts | 335° |
| 2026-04-26 18:40 | 47.46978 | 8.54298 | 1410 ft | 12 kts | 334° |
| 2026-04-26 18:41 | 47.47050 | 8.54246 | 1410 ft | 12 kts | 334° |
| 2026-04-26 18:41 | 47.47123 | 8.54196 | 1403 ft | 12 kts | 335° |
| 2026-04-26 18:41 | 47.47197 | 8.54146 | 1410 ft | 12 kts | 335° |
| 2026-04-26 18:41 | 47.47270 | 8.54096 | 1406 ft | 12 kts | 335° |
| 2026-04-26 18:42 | 47.47343 | 8.54046 | 1409 ft | 12 kts | 335° |
| 2026-04-26 18:42 | 47.47417 | 8.53997 | 1403 ft | 12 kts | 335° |
| 2026-04-26 18:42 | 47.47490 | 8.53947 | 1409 ft | 12 kts | 335° |
| 2026-04-26 18:42 | 47.47563 | 8.53897 | 1409 ft | 12 kts | 335° |
| 2026-04-26 18:43 | 47.47635 | 8.53847 | 1402 ft | 12 kts | 335° |
| 2026-04-26 18:43 | 47.47700 | 8.53781 | 1407 ft | 12 kts | 301° |
| 2026-04-26 18:43 | 47.47701 | 8.53732 | 1403 ft | 0 kts | 249° |
| 2026-04-26 18:44 | 47.47701 | 8.53731 | 1402 ft | 1 kts | 248° |
| 2026-04-26 18:44 | 47.47692 | 8.53707 | 1402 ft | 5 kts | 239° |
| 2026-04-26 18:44 | 47.47654 | 8.53669 | 1405 ft | 9 kts | 205° |
| 2026-04-26 18:44 | 47.47599 | 8.53631 | 1410 ft | 9 kts | 203° |
| 2026-04-26 18:45 | 47.47540 | 8.53625 | 1412 ft | 9 kts | 170° |
| 2026-04-26 18:45 | 47.47486 | 8.53657 | 1406 ft | 6 kts | 155° |
| 2026-04-26 18:45 | 47.47446 | 8.53682 | 1410 ft | 7 kts | 156° |
| 2026-04-26 18:45 | 47.47328 | 8.53762 | 1408 ft | 41 kts | 155° |
| 2026-04-26 18:46 | 47.46851 | 8.54090 | 1408 ft | 109 kts | 155° |
| 2026-04-26 18:46 | 47.45976 | 8.54693 | 1410 ft | 166 kts | 155° |
| 2026-04-26 18:46 | 47.44807 | 8.55501 | 1499 ft | 198 kts | 155° |
| 2026-04-26 18:46 | 47.43530 | 8.56352 | 1993 ft | 199 kts | 154° |
| 2026-04-26 18:47 | 47.42336 | 8.57299 | 2595 ft | 202 kts | 137° |
| 2026-04-26 18:47 | 47.41591 | 8.59089 | 3037 ft | 207 kts | 101° |
| 2026-04-26 18:47 | 47.41653 | 8.61217 | 3431 ft | 221 kts | 69° |
| 2026-04-26 18:47 | 47.42540 | 8.63063 | 3913 ft | 224 kts | 34° |
| 2026-04-26 18:48 | 47.43976 | 8.63847 | 4518 ft | 223 kts | 1° |
| 2026-04-26 18:48 | 47.45483 | 8.63377 | 5042 ft | 225 kts | 331° |
| 2026-04-26 18:48 | 47.46662 | 8.61859 | 5549 ft | 228 kts | 305° |
| 2026-04-26 18:48 | 47.47281 | 8.59726 | 6106 ft | 229 kts | 277° |
| 2026-04-26 18:49 | 47.47225 | 8.57365 | 6595 ft | 232 kts | 258° |
| 2026-04-26 18:49 | 47.46968 | 8.55020 | 7014 ft | 232 kts | 261° |
| 2026-04-26 18:49 | 47.46468 | 8.52744 | 7325 ft | 241 kts | 238° |
| 2026-04-26 18:49 | 47.45483 | 8.50695 | 7461 ft | 257 kts | 235° |
| 2026-04-26 18:50 | 47.44447 | 8.48420 | 7734 ft | 274 kts | 237° |
| 2026-04-26 18:50 | 47.43419 | 8.45986 | 8246 ft | 283 kts | 239° |
| 2026-04-26 18:50 | 47.42403 | 8.43466 | 8872 ft | 287 kts | 240° |
| 2026-04-26 18:50 | 47.41397 | 8.40898 | 9557 ft | 290 kts | 240° |
| 2026-04-26 18:51 | 47.40394 | 8.38302 | 10247 ft | 293 kts | 241° |
| 2026-04-26 18:51 | 47.39361 | 8.35627 | 10581 ft | 310 kts | 241° |
| 2026-04-26 18:51 | 47.38275 | 8.32745 | 10784 ft | 333 kts | 243° |
| 2026-04-26 18:51 | 47.37169 | 8.29608 | 10967 ft | 356 kts | 243° |
| 2026-04-26 18:52 | 47.36001 | 8.26299 | 11483 ft | 369 kts | 243° |
| 2026-04-26 18:52 | 47.35210 | 8.24064 | 11943 ft | 374 kts | 243° |
| 2026-04-26 18:52 | 47.33607 | 8.19539 | 13130 ft | 378 kts | 243° |
| 2026-04-26 18:52 | 47.32383 | 8.16095 | 14048 ft | 381 kts | 243° |
| 2026-04-26 18:53 | 47.31147 | 8.12622 | 14895 ft | 385 kts | 243° |
| 2026-04-26 18:53 | 47.29904 | 8.09099 | 15707 ft | 390 kts | 244° |
| 2026-04-26 18:53 | 47.28648 | 8.05539 | 16484 ft | 394 kts | 244° |
| 2026-04-26 18:53 | 47.27484 | 8.01902 | 17150 ft | 394 kts | 253° |
| 2026-04-26 18:54 | 47.27094 | 7.97897 | 17712 ft | 400 kts | 273° |
| 2026-04-26 18:54 | 47.27458 | 7.93855 | 18394 ft | 400 kts | 279° |
| 2026-04-26 18:54 | 47.27885 | 7.89781 | 19083 ft | 405 kts | 279° |
| 2026-04-26 18:54 | 47.28285 | 7.85717 | 19818 ft | 408 kts | 278° |
| 2026-04-26 18:55 | 47.28679 | 7.81565 | 20548 ft | 410 kts | 278° |
| 2026-04-26 18:55 | 47.29069 | 7.77386 | 21227 ft | 414 kts | 278° |
| 2026-04-26 18:55 | 47.29460 | 7.73168 | 21870 ft | 417 kts | 278° |